sensor_id;sensor_type;location;lat;lon;timestamp;P1;durP1;ratioP1;P2;durP2;ratioP2
50745;SDS011;36711;51.972;21.204;2022-09-24T00:01:37;16.40;;;9.40;;
50745;SDS011;36711;51.972;21.204;2022-09-24T00:04:08;18.30;;;9.80;;
50745;SDS011;36711;51.972;21.204;2022-09-24T00:06:40;17.50;;;9.40;;
50745;SDS011;36711;51.972;21.204;2022-09-24T00:09:08;18.50;;;10.30;;
50745;SDS011;36711;51.972;21.204;2022-09-24T00:11:37;23.10;;;10.60;;
50745;SDS011;36711;51.972;21.204;2022-09-24T00:14:05;21.30;;;10.90;;
50745;SDS011;36711;51.972;21.204;2022-09-24T00:16:33;20.90;;;11.60;;
50745;SDS011;36711;51.972;21.204;2022-09-24T00:19:02;20.90;;;11.50;;
50745;SDS011;36711;51.972;21.204;2022-09-24T00:21:30;20.80;;;11.70;;
50745;SDS011;36711;51.972;21.204;2022-09-24T00:23:59;21.50;;;11.20;;
50745;SDS011;36711;51.972;21.204;2022-09-24T00:26:27;17.50;;;9.90;;
50745;SDS011;36711;51.972;21.204;2022-09-24T00:29:18;17.50;;;10.10;;
50745;SDS011;36711;51.972;21.204;2022-09-24T00:31:46;21.00;;;9.40;;
50745;SDS011;36711;51.972;21.204;2022-09-24T00:34:14;24.00;;;11.10;;
50745;SDS011;36711;51.972;21.204;2022-09-24T00:36:42;25.10;;;11.90;;
50745;SDS011;36711;51.972;21.204;2022-09-24T00:39:13;24.80;;;12.70;;
50745;SDS011;36711;51.972;21.204;2022-09-24T00:41:41;22.90;;;13.20;;
50745;SDS011;36711;51.972;21.204;2022-09-24T00:46:58;21.50;;;11.80;;
50745;SDS011;36711;51.972;21.204;2022-09-24T00:49:25;22.90;;;11.20;;
50745;SDS011;36711;51.972;21.204;2022-09-24T00:51:53;23.40;;;11.80;;
50745;SDS011;36711;51.972;21.204;2022-09-24T00:54:22;20.10;;;11.20;;
50745;SDS011;36711;51.972;21.204;2022-09-24T00:56:52;20.70;;;10.50;;
50745;SDS011;36711;51.972;21.204;2022-09-24T00:59:21;20.50;;;12.00;;
50745;SDS011;36711;51.972;21.204;2022-09-24T01:01:50;23.00;;;11.80;;
50745;SDS011;36711;51.972;21.204;2022-09-24T01:04:20;18.30;;;11.00;;
50745;SDS011;36711;51.972;21.204;2022-09-24T01:06:48;22.70;;;12.40;;
50745;SDS011;36711;51.972;21.204;2022-09-24T01:09:16;18.60;;;10.90;;
50745;SDS011;36711;51.972;21.204;2022-09-24T01:27:59;17.50;;;10.10;;
50745;SDS011;36711;51.972;21.204;2022-09-24T01:30:31;22.00;;;11.20;;
50745;SDS011;36711;51.972;21.204;2022-09-24T01:33:01;18.90;;;10.90;;
50745;SDS011;36711;51.972;21.204;2022-09-24T01:37:59;17.70;;;9.70;;
50745;SDS011;36711;51.972;21.204;2022-09-24T01:40:28;17.90;;;9.10;;
50745;SDS011;36711;51.972;21.204;2022-09-24T01:42:57;18.00;;;10.20;;
50745;SDS011;36711;51.972;21.204;2022-09-24T01:45:26;16.20;;;10.30;;
50745;SDS011;36711;51.972;21.204;2022-09-24T01:48:00;15.30;;;9.20;;
50745;SDS011;36711;51.972;21.204;2022-09-24T01:50:28;19.30;;;9.60;;
50745;SDS011;36711;51.972;21.204;2022-09-24T01:53:01;15.40;;;9.70;;
50745;SDS011;36711;51.972;21.204;2022-09-24T01:55:32;18.10;;;9.50;;
50745;SDS011;36711;51.972;21.204;2022-09-24T01:58:06;19.20;;;9.90;;
50745;SDS011;36711;51.972;21.204;2022-09-24T02:00:36;15.50;;;9.30;;
50745;SDS011;36711;51.972;21.204;2022-09-24T02:03:07;20.30;;;10.20;;
50745;SDS011;36711;51.972;21.204;2022-09-24T02:05:47;18.90;;;10.10;;
50745;SDS011;36711;51.972;21.204;2022-09-24T02:10:54;13.80;;;8.70;;
50745;SDS011;36711;51.972;21.204;2022-09-24T02:13:23;18.30;;;10.20;;
50745;SDS011;36711;51.972;21.204;2022-09-24T02:15:53;17.10;;;9.50;;
50745;SDS011;36711;51.972;21.204;2022-09-24T02:18:25;14.90;;;8.80;;
50745;SDS011;36711;51.972;21.204;2022-09-24T02:20:55;16.80;;;9.20;;
50745;SDS011;36711;51.972;21.204;2022-09-24T02:23:24;14.50;;;9.00;;
50745;SDS011;36711;51.972;21.204;2022-09-24T02:25:54;20.30;;;10.40;;
50745;SDS011;36711;51.972;21.204;2022-09-24T02:28:24;19.60;;;10.10;;
50745;SDS011;36711;51.972;21.204;2022-09-24T02:30:54;18.70;;;9.90;;
50745;SDS011;36711;51.972;21.204;2022-09-24T02:33:23;17.30;;;9.70;;
50745;SDS011;36711;51.972;21.204;2022-09-24T02:36:10;19.60;;;9.20;;
50745;SDS011;36711;51.972;21.204;2022-09-24T02:38:38;15.60;;;9.40;;
50745;SDS011;36711;51.972;21.204;2022-09-24T02:41:06;16.00;;;9.50;;
50745;SDS011;36711;51.972;21.204;2022-09-24T02:43:34;15.70;;;8.70;;
50745;SDS011;36711;51.972;21.204;2022-09-24T02:46:02;16.10;;;8.60;;
50745;SDS011;36711;51.972;21.204;2022-09-24T02:48:30;17.30;;;9.10;;
50745;SDS011;36711;51.972;21.204;2022-09-24T02:50:58;13.90;;;8.60;;
50745;SDS011;36711;51.972;21.204;2022-09-24T02:53:26;17.30;;;9.40;;
50745;SDS011;36711;51.972;21.204;2022-09-24T02:55:54;18.40;;;9.30;;
50745;SDS011;36711;51.972;21.204;2022-09-24T02:58:21;17.30;;;8.90;;
50745;SDS011;36711;51.972;21.204;2022-09-24T03:00:49;18.20;;;9.20;;
50745;SDS011;36711;51.972;21.204;2022-09-24T03:03:16;15.90;;;8.80;;
50745;SDS011;36711;51.972;21.204;2022-09-24T03:05:44;16.20;;;9.10;;
50745;SDS011;36711;51.972;21.204;2022-09-24T03:08:13;15.50;;;9.30;;
50745;SDS011;36711;51.972;21.204;2022-09-24T03:10:41;14.20;;;8.40;;
50745;SDS011;36711;51.972;21.204;2022-09-24T03:13:09;13.00;;;7.90;;
50745;SDS011;36711;51.972;21.204;2022-09-24T03:15:37;16.20;;;8.70;;
50745;SDS011;36711;51.972;21.204;2022-09-24T03:18:05;13.20;;;8.40;;
50745;SDS011;36711;51.972;21.204;2022-09-24T03:20:32;13.40;;;8.70;;
50745;SDS011;36711;51.972;21.204;2022-09-24T03:23:00;16.70;;;8.80;;
50745;SDS011;36711;51.972;21.204;2022-09-24T03:25:27;16.30;;;8.90;;
50745;SDS011;36711;51.972;21.204;2022-09-24T03:27:55;15.80;;;9.10;;
50745;SDS011;36711;51.972;21.204;2022-09-24T03:30:22;14.30;;;8.70;;
50745;SDS011;36711;51.972;21.204;2022-09-24T03:33:09;16.70;;;8.60;;
50745;SDS011;36711;51.972;21.204;2022-09-24T03:35:37;15.30;;;8.80;;
50745;SDS011;36711;51.972;21.204;2022-09-24T03:38:04;13.10;;;8.80;;
50745;SDS011;36711;51.972;21.204;2022-09-24T03:40:32;19.70;;;8.90;;
50745;SDS011;36711;51.972;21.204;2022-09-24T03:43:00;15.30;;;8.40;;
50745;SDS011;36711;51.972;21.204;2022-09-24T03:45:27;14.90;;;9.20;;
50745;SDS011;36711;51.972;21.204;2022-09-24T03:47:58;15.90;;;9.10;;
50745;SDS011;36711;51.972;21.204;2022-09-24T03:50:25;19.70;;;9.00;;
50745;SDS011;36711;51.972;21.204;2022-09-24T03:52:53;17.00;;;9.40;;
50745;SDS011;36711;51.972;21.204;2022-09-24T03:55:20;15.50;;;9.70;;
50745;SDS011;36711;51.972;21.204;2022-09-24T03:57:48;16.40;;;9.10;;
50745;SDS011;36711;51.972;21.204;2022-09-24T04:00:15;16.10;;;8.80;;
50745;SDS011;36711;51.972;21.204;2022-09-24T04:02:43;14.10;;;8.80;;
50745;SDS011;36711;51.972;21.204;2022-09-24T04:05:11;15.30;;;8.90;;
50745;SDS011;36711;51.972;21.204;2022-09-24T04:07:39;14.50;;;8.90;;
50745;SDS011;36711;51.972;21.204;2022-09-24T04:10:08;14.80;;;8.00;;
50745;SDS011;36711;51.972;21.204;2022-09-24T04:12:35;12.90;;;7.80;;
50745;SDS011;36711;51.972;21.204;2022-09-24T04:15:03;17.90;;;9.40;;
50745;SDS011;36711;51.972;21.204;2022-09-24T04:17:31;14.10;;;8.70;;
50745;SDS011;36711;51.972;21.204;2022-09-24T04:19:59;23.20;;;14.40;;
50745;SDS011;36711;51.972;21.204;2022-09-24T04:22:28;28.50;;;18.80;;
50745;SDS011;36711;51.972;21.204;2022-09-24T04:24:55;32.20;;;18.10;;
50745;SDS011;36711;51.972;21.204;2022-09-24T04:27:23;41.40;;;18.20;;
50745;SDS011;36711;51.972;21.204;2022-09-24T04:29:51;27.90;;;13.20;;
50745;SDS011;36711;51.972;21.204;2022-09-24T04:32:20;26.80;;;12.00;;
50745;SDS011;36711;51.972;21.204;2022-09-24T04:34:48;23.40;;;10.60;;
50745;SDS011;36711;51.972;21.204;2022-09-24T04:37:15;20.60;;;10.30;;
50745;SDS011;36711;51.972;21.204;2022-09-24T04:39:43;19.50;;;9.30;;
50745;SDS011;36711;51.972;21.204;2022-09-24T04:42:14;15.10;;;8.20;;
50745;SDS011;36711;51.972;21.204;2022-09-24T04:44:42;15.70;;;8.80;;
50745;SDS011;36711;51.972;21.204;2022-09-24T04:47:13;16.10;;;8.00;;
50745;SDS011;36711;51.972;21.204;2022-09-24T04:49:41;17.10;;;8.60;;
50745;SDS011;36711;51.972;21.204;2022-09-24T04:52:12;32.90;;;11.90;;
50745;SDS011;36711;51.972;21.204;2022-09-24T04:54:43;14.40;;;8.50;;
50745;SDS011;36711;51.972;21.204;2022-09-24T04:57:13;14.10;;;8.30;;
50745;SDS011;36711;51.972;21.204;2022-09-24T04:59:41;14.40;;;9.00;;
50745;SDS011;36711;51.972;21.204;2022-09-24T05:02:09;18.30;;;8.60;;
50745;SDS011;36711;51.972;21.204;2022-09-24T05:04:37;23.00;;;11.20;;
50745;SDS011;36711;51.972;21.204;2022-09-24T05:07:04;25.80;;;11.10;;
50745;SDS011;36711;51.972;21.204;2022-09-24T05:09:32;44.40;;;14.90;;
50745;SDS011;36711;51.972;21.204;2022-09-24T05:12:00;62.50;;;21.50;;
50745;SDS011;36711;51.972;21.204;2022-09-24T05:14:28;25.50;;;12.00;;
50745;SDS011;36711;51.972;21.204;2022-09-24T05:16:56;16.50;;;8.40;;
50745;SDS011;36711;51.972;21.204;2022-09-24T05:19:23;15.00;;;8.30;;
50745;SDS011;36711;51.972;21.204;2022-09-24T05:21:51;16.10;;;8.30;;
50745;SDS011;36711;51.972;21.204;2022-09-24T05:24:19;14.30;;;8.20;;
50745;SDS011;36711;51.972;21.204;2022-09-24T05:26:46;15.40;;;8.90;;
50745;SDS011;36711;51.972;21.204;2022-09-24T05:29:33;13.80;;;7.90;;
50745;SDS011;36711;51.972;21.204;2022-09-24T05:32:04;12.00;;;6.90;;
50745;SDS011;36711;51.972;21.204;2022-09-24T05:34:32;12.30;;;7.60;;
50745;SDS011;36711;51.972;21.204;2022-09-24T05:37:00;15.20;;;8.10;;
50745;SDS011;36711;51.972;21.204;2022-09-24T05:39:28;14.50;;;8.50;;
50745;SDS011;36711;51.972;21.204;2022-09-24T05:42:00;17.40;;;9.40;;
50745;SDS011;36711;51.972;21.204;2022-09-24T05:44:31;16.80;;;9.30;;
50745;SDS011;36711;51.972;21.204;2022-09-24T05:46:58;16.40;;;7.90;;
50745;SDS011;36711;51.972;21.204;2022-09-24T05:49:26;15.70;;;7.50;;
50745;SDS011;36711;51.972;21.204;2022-09-24T05:51:54;15.40;;;8.70;;
50745;SDS011;36711;51.972;21.204;2022-09-24T05:54:21;13.30;;;8.80;;
50745;SDS011;36711;51.972;21.204;2022-09-24T05:56:49;12.60;;;7.20;;
50745;SDS011;36711;51.972;21.204;2022-09-24T05:59:16;13.80;;;7.40;;
50745;SDS011;36711;51.972;21.204;2022-09-24T06:01:44;15.80;;;7.80;;
50745;SDS011;36711;51.972;21.204;2022-09-24T06:04:12;13.50;;;7.50;;
50745;SDS011;36711;51.972;21.204;2022-09-24T06:06:40;13.30;;;7.90;;
50745;SDS011;36711;51.972;21.204;2022-09-24T06:09:07;13.30;;;7.60;;
50745;SDS011;36711;51.972;21.204;2022-09-24T06:11:36;12.70;;;8.30;;
50745;SDS011;36711;51.972;21.204;2022-09-24T06:14:07;16.20;;;8.30;;
50745;SDS011;36711;51.972;21.204;2022-09-24T06:16:35;11.70;;;8.00;;
50745;SDS011;36711;51.972;21.204;2022-09-24T06:19:03;15.50;;;9.30;;
50745;SDS011;36711;51.972;21.204;2022-09-24T06:21:30;14.10;;;8.10;;
50745;SDS011;36711;51.972;21.204;2022-09-24T06:23:58;17.10;;;8.20;;
50745;SDS011;36711;51.972;21.204;2022-09-24T06:26:25;13.70;;;8.50;;
50745;SDS011;36711;51.972;21.204;2022-09-24T06:28:54;14.90;;;8.20;;
50745;SDS011;36711;51.972;21.204;2022-09-24T06:31:28;12.50;;;8.30;;
50745;SDS011;36711;51.972;21.204;2022-09-24T06:33:56;13.10;;;8.00;;
50745;SDS011;36711;51.972;21.204;2022-09-24T06:36:24;15.10;;;8.30;;
50745;SDS011;36711;51.972;21.204;2022-09-24T06:38:51;11.70;;;7.40;;
50745;SDS011;36711;51.972;21.204;2022-09-24T06:41:19;13.80;;;7.70;;
50745;SDS011;36711;51.972;21.204;2022-09-24T06:43:46;11.30;;;7.40;;
50745;SDS011;36711;51.972;21.204;2022-09-24T06:46:14;16.20;;;7.90;;
50745;SDS011;36711;51.972;21.204;2022-09-24T06:48:42;16.00;;;8.40;;
50745;SDS011;36711;51.972;21.204;2022-09-24T06:51:09;14.30;;;8.10;;
50745;SDS011;36711;51.972;21.204;2022-09-24T06:53:37;14.90;;;8.10;;
50745;SDS011;36711;51.972;21.204;2022-09-24T06:56:05;20.40;;;8.20;;
50745;SDS011;36711;51.972;21.204;2022-09-24T06:58:33;16.70;;;8.40;;
50745;SDS011;36711;51.972;21.204;2022-09-24T07:01:01;16.30;;;8.00;;
50745;SDS011;36711;51.972;21.204;2022-09-24T07:03:30;14.40;;;7.80;;
50745;SDS011;36711;51.972;21.204;2022-09-24T07:05:59;13.70;;;7.70;;
50745;SDS011;36711;51.972;21.204;2022-09-24T07:08:26;14.00;;;7.60;;
50745;SDS011;36711;51.972;21.204;2022-09-24T07:10:54;13.20;;;7.60;;
50745;SDS011;36711;51.972;21.204;2022-09-24T07:13:21;15.00;;;8.70;;
50745;SDS011;36711;51.972;21.204;2022-09-24T07:15:49;13.00;;;8.60;;
50745;SDS011;36711;51.972;21.204;2022-09-24T07:18:18;17.30;;;8.10;;
50745;SDS011;36711;51.972;21.204;2022-09-24T07:20:50;14.00;;;8.50;;
50745;SDS011;36711;51.972;21.204;2022-09-24T07:23:18;13.20;;;8.20;;
50745;SDS011;36711;51.972;21.204;2022-09-24T07:25:46;12.10;;;8.40;;
50745;SDS011;36711;51.972;21.204;2022-09-24T07:28:14;13.80;;;7.40;;
50745;SDS011;36711;51.972;21.204;2022-09-24T07:30:42;10.40;;;7.40;;
50745;SDS011;36711;51.972;21.204;2022-09-24T07:33:09;11.00;;;7.10;;
50745;SDS011;36711;51.972;21.204;2022-09-24T07:35:37;9.20;;;6.20;;
50745;SDS011;36711;51.972;21.204;2022-09-24T07:38:06;8.20;;;6.10;;
50745;SDS011;36711;51.972;21.204;2022-09-24T07:40:34;11.50;;;6.50;;
50745;SDS011;36711;51.972;21.204;2022-09-24T07:43:02;10.20;;;6.00;;
50745;SDS011;36711;51.972;21.204;2022-09-24T07:45:30;11.10;;;5.80;;
50745;SDS011;36711;51.972;21.204;2022-09-24T07:48:01;7.40;;;5.20;;
50745;SDS011;36711;51.972;21.204;2022-09-24T07:50:30;7.00;;;5.70;;
50745;SDS011;36711;51.972;21.204;2022-09-24T07:52:58;8.60;;;5.50;;
50745;SDS011;36711;51.972;21.204;2022-09-24T07:55:26;7.10;;;5.10;;
50745;SDS011;36711;51.972;21.204;2022-09-24T07:57:54;8.10;;;4.60;;
50745;SDS011;36711;51.972;21.204;2022-09-24T08:00:23;6.00;;;4.50;;
50745;SDS011;36711;51.972;21.204;2022-09-24T08:02:51;8.00;;;4.40;;
50745;SDS011;36711;51.972;21.204;2022-09-24T08:05:20;6.50;;;3.80;;
50745;SDS011;36711;51.972;21.204;2022-09-24T08:07:54;9.50;;;4.40;;
50745;SDS011;36711;51.972;21.204;2022-09-24T08:10:23;8.30;;;4.60;;
50745;SDS011;36711;51.972;21.204;2022-09-24T08:12:51;5.40;;;3.80;;
50745;SDS011;36711;51.972;21.204;2022-09-24T08:15:20;10.20;;;4.00;;
50745;SDS011;36711;51.972;21.204;2022-09-24T08:17:49;6.70;;;3.80;;
50745;SDS011;36711;51.972;21.204;2022-09-24T08:20:17;6.30;;;3.80;;
50745;SDS011;36711;51.972;21.204;2022-09-24T08:22:45;7.60;;;3.80;;
50745;SDS011;36711;51.972;21.204;2022-09-24T08:25:13;6.90;;;3.80;;
50745;SDS011;36711;51.972;21.204;2022-09-24T08:27:41;6.50;;;3.60;;
50745;SDS011;36711;51.972;21.204;2022-09-24T08:30:12;4.50;;;3.20;;
50745;SDS011;36711;51.972;21.204;2022-09-24T08:32:39;7.90;;;3.70;;
50745;SDS011;36711;51.972;21.204;2022-09-24T08:35:12;4.50;;;3.20;;
50745;SDS011;36711;51.972;21.204;2022-09-24T08:37:42;3.60;;;2.80;;
50745;SDS011;36711;51.972;21.204;2022-09-24T08:40:13;4.60;;;3.20;;
50745;SDS011;36711;51.972;21.204;2022-09-24T08:42:47;5.80;;;3.10;;
50745;SDS011;36711;51.972;21.204;2022-09-24T08:45:15;5.10;;;2.60;;
50745;SDS011;36711;51.972;21.204;2022-09-24T08:48:13;3.60;;;2.40;;
50745;SDS011;36711;51.972;21.204;2022-09-24T08:50:47;5.00;;;2.60;;
50745;SDS011;36711;51.972;21.204;2022-09-24T08:53:24;3.00;;;2.20;;
50745;SDS011;36711;51.972;21.204;2022-09-24T08:55:59;3.20;;;2.70;;
50745;SDS011;36711;51.972;21.204;2022-09-24T08:58:34;2.50;;;2.20;;
50745;SDS011;36711;51.972;21.204;2022-09-24T09:01:13;3.60;;;2.40;;
50745;SDS011;36711;51.972;21.204;2022-09-24T09:11:33;2.30;;;1.60;;
50745;SDS011;36711;51.972;21.204;2022-09-24T09:14:08;2.90;;;1.90;;
50745;SDS011;36711;51.972;21.204;2022-09-24T09:19:41;2.30;;;1.80;;
50745;SDS011;36711;51.972;21.204;2022-09-24T09:22:15;3.10;;;1.70;;
50745;SDS011;36711;51.972;21.204;2022-09-24T09:24:47;2.20;;;2.00;;
50745;SDS011;36711;51.972;21.204;2022-09-24T09:27:16;4.70;;;2.10;;
50745;SDS011;36711;51.972;21.204;2022-09-24T09:29:45;3.20;;;2.30;;
50745;SDS011;36711;51.972;21.204;2022-09-24T09:32:21;2.80;;;2.00;;
50745;SDS011;36711;51.972;21.204;2022-09-24T09:34:53;3.90;;;2.00;;
50745;SDS011;36711;51.972;21.204;2022-09-24T09:37:28;2.50;;;1.50;;
50745;SDS011;36711;51.972;21.204;2022-09-24T09:42:48;1.90;;;1.70;;
50745;SDS011;36711;51.972;21.204;2022-09-24T09:45:28;2.10;;;1.80;;
50745;SDS011;36711;51.972;21.204;2022-09-24T09:47:56;3.20;;;2.10;;
50745;SDS011;36711;51.972;21.204;2022-09-24T09:53:04;3.20;;;2.40;;
50745;SDS011;36711;51.972;21.204;2022-09-24T09:55:33;5.00;;;2.70;;
50745;SDS011;36711;51.972;21.204;2022-09-24T10:00:42;2.80;;;1.80;;
50745;SDS011;36711;51.972;21.204;2022-09-24T10:03:27;2.20;;;1.70;;
50745;SDS011;36711;51.972;21.204;2022-09-24T10:05:57;3.90;;;2.20;;
50745;SDS011;36711;51.972;21.204;2022-09-24T10:08:25;2.50;;;2.30;;
50745;SDS011;36711;51.972;21.204;2022-09-24T10:10:53;2.90;;;2.20;;
50745;SDS011;36711;51.972;21.204;2022-09-24T10:13:22;2.20;;;2.00;;
50745;SDS011;36711;51.972;21.204;2022-09-24T10:15:54;2.40;;;1.80;;
50745;SDS011;36711;51.972;21.204;2022-09-24T10:23:25;1.80;;;1.70;;
50745;SDS011;36711;51.972;21.204;2022-09-24T10:25:58;4.20;;;1.90;;
50745;SDS011;36711;51.972;21.204;2022-09-24T10:28:26;3.40;;;2.00;;
50745;SDS011;36711;51.972;21.204;2022-09-24T10:31:17;2.00;;;1.40;;
50745;SDS011;36711;51.972;21.204;2022-09-24T10:33:46;2.20;;;1.00;;
50745;SDS011;36711;51.972;21.204;2022-09-24T10:36:25;1.10;;;1.00;;
50745;SDS011;36711;51.972;21.204;2022-09-24T10:39:13;2.20;;;0.90;;
50745;SDS011;36711;51.972;21.204;2022-09-24T10:41:48;2.80;;;0.70;;
50745;SDS011;36711;51.972;21.204;2022-09-24T10:44:16;1.20;;;1.00;;
50745;SDS011;36711;51.972;21.204;2022-09-24T10:54:33;2.30;;;0.70;;
50745;SDS011;36711;51.972;21.204;2022-09-24T10:57:13;0.60;;;0.60;;
50745;SDS011;36711;51.972;21.204;2022-09-24T11:04:58;2.40;;;1.00;;
50745;SDS011;36711;51.972;21.204;2022-09-24T11:28:50;5.30;;;1.00;;
50745;SDS011;36711;51.972;21.204;2022-09-24T11:31:31;2.30;;;0.80;;
50745;SDS011;36711;51.972;21.204;2022-09-24T11:41:48;1.60;;;0.50;;
50745;SDS011;36711;51.972;21.204;2022-09-24T11:49:46;2.30;;;0.80;;
50745;SDS011;36711;51.972;21.204;2022-09-24T11:52:29;0.60;;;0.60;;
50745;SDS011;36711;51.972;21.204;2022-09-24T11:55:01;2.60;;;0.80;;
50745;SDS011;36711;51.972;21.204;2022-09-24T11:57:38;2.20;;;1.10;;
50745;SDS011;36711;51.972;21.204;2022-09-24T12:00:13;1.10;;;0.70;;
50745;SDS011;36711;51.972;21.204;2022-09-24T12:02:50;1.40;;;1.00;;
50745;SDS011;36711;51.972;21.204;2022-09-24T12:05:27;7.30;;;2.00;;
50745;SDS011;36711;51.972;21.204;2022-09-24T12:08:05;3.70;;;1.60;;
50745;SDS011;36711;51.972;21.204;2022-09-24T12:10:48;1.30;;;1.10;;
50745;SDS011;36711;51.972;21.204;2022-09-24T12:13:20;1.40;;;1.00;;
50745;SDS011;36711;51.972;21.204;2022-09-24T12:16:03;3.10;;;1.50;;
50745;SDS011;36711;51.972;21.204;2022-09-24T12:18:44;2.30;;;1.00;;
50745;SDS011;36711;51.972;21.204;2022-09-24T12:21:15;1.50;;;1.10;;
50745;SDS011;36711;51.972;21.204;2022-09-24T12:23:45;5.20;;;1.20;;
50745;SDS011;36711;51.972;21.204;2022-09-24T12:26:15;5.70;;;1.00;;
50745;SDS011;36711;51.972;21.204;2022-09-24T12:31:38;4.10;;;1.60;;
50745;SDS011;36711;51.972;21.204;2022-09-24T12:34:38;1.80;;;1.30;;
50745;SDS011;36711;51.972;21.204;2022-09-24T12:37:09;3.70;;;1.40;;
50745;SDS011;36711;51.972;21.204;2022-09-24T12:39:49;10.40;;;1.50;;
50745;SDS011;36711;51.972;21.204;2022-09-24T12:42:19;4.30;;;1.50;;
50745;SDS011;36711;51.972;21.204;2022-09-24T12:44:55;1.60;;;1.40;;
50745;SDS011;36711;51.972;21.204;2022-09-24T12:47:25;3.00;;;1.60;;
50745;SDS011;36711;51.972;21.204;2022-09-24T12:49:54;3.50;;;1.50;;
50745;SDS011;36711;51.972;21.204;2022-09-24T12:52:26;3.80;;;1.60;;
50745;SDS011;36711;51.972;21.204;2022-09-24T12:54:56;4.70;;;1.60;;
50745;SDS011;36711;51.972;21.204;2022-09-24T13:03:04;1.70;;;1.50;;
50745;SDS011;36711;51.972;21.204;2022-09-24T13:05:54;2.50;;;1.20;;
50745;SDS011;36711;51.972;21.204;2022-09-24T13:08:34;4.00;;;1.10;;
50745;SDS011;36711;51.972;21.204;2022-09-24T13:11:03;2.10;;;1.50;;
50745;SDS011;36711;51.972;21.204;2022-09-24T13:13:35;2.30;;;1.20;;
50745;SDS011;36711;51.972;21.204;2022-09-24T13:16:13;1.90;;;1.40;;
50745;SDS011;36711;51.972;21.204;2022-09-24T13:18:49;5.50;;;1.30;;
50745;SDS011;36711;51.972;21.204;2022-09-24T13:21:18;2.70;;;1.20;;
50745;SDS011;36711;51.972;21.204;2022-09-24T13:23:48;1.80;;;1.10;;
50745;SDS011;36711;51.972;21.204;2022-09-24T13:31:18;3.20;;;1.00;;
50745;SDS011;36711;51.972;21.204;2022-09-24T13:33:50;2.50;;;1.00;;
50745;SDS011;36711;51.972;21.204;2022-09-24T13:36:24;3.70;;;1.10;;
50745;SDS011;36711;51.972;21.204;2022-09-24T13:39:01;3.30;;;1.30;;
50745;SDS011;36711;51.972;21.204;2022-09-24T13:44:24;2.00;;;1.10;;
50745;SDS011;36711;51.972;21.204;2022-09-24T13:46:55;1.50;;;1.20;;
50745;SDS011;36711;51.972;21.204;2022-09-24T13:49:25;2.40;;;1.20;;
50745;SDS011;36711;51.972;21.204;2022-09-24T13:52:06;2.60;;;1.00;;
50745;SDS011;36711;51.972;21.204;2022-09-24T13:54:36;1.50;;;1.20;;
50745;SDS011;36711;51.972;21.204;2022-09-24T13:59:33;1.90;;;1.70;;
50745;SDS011;36711;51.972;21.204;2022-09-24T14:02:01;2.40;;;1.30;;
50745;SDS011;36711;51.972;21.204;2022-09-24T14:04:29;3.90;;;1.00;;
50745;SDS011;36711;51.972;21.204;2022-09-24T14:06:58;0.90;;;0.80;;
50745;SDS011;36711;51.972;21.204;2022-09-24T14:09:30;2.90;;;0.80;;
50745;SDS011;36711;51.972;21.204;2022-09-24T14:12:14;1.60;;;0.70;;
50745;SDS011;36711;51.972;21.204;2022-09-24T14:14:43;1.30;;;0.90;;
50745;SDS011;36711;51.972;21.204;2022-09-24T14:17:14;3.60;;;0.80;;
50745;SDS011;36711;51.972;21.204;2022-09-24T14:19:42;1.30;;;0.80;;
50745;SDS011;36711;51.972;21.204;2022-09-24T14:22:11;2.10;;;1.00;;
50745;SDS011;36711;51.972;21.204;2022-09-24T14:24:46;4.20;;;0.80;;
50745;SDS011;36711;51.972;21.204;2022-09-24T14:27:17;2.50;;;0.70;;
50745;SDS011;36711;51.972;21.204;2022-09-24T14:29:47;4.20;;;1.00;;
50745;SDS011;36711;51.972;21.204;2022-09-24T14:32:27;3.30;;;0.80;;
50745;SDS011;36711;51.972;21.204;2022-09-24T14:34:56;5.60;;;1.00;;
50745;SDS011;36711;51.972;21.204;2022-09-24T14:37:29;6.10;;;0.90;;
50745;SDS011;36711;51.972;21.204;2022-09-24T14:40:03;1.10;;;0.70;;
50745;SDS011;36711;51.972;21.204;2022-09-24T14:42:36;3.00;;;0.90;;
50745;SDS011;36711;51.972;21.204;2022-09-24T14:45:07;2.80;;;0.80;;
50745;SDS011;36711;51.972;21.204;2022-09-24T14:47:35;1.90;;;0.80;;
50745;SDS011;36711;51.972;21.204;2022-09-24T14:50:03;2.90;;;1.00;;
50745;SDS011;36711;51.972;21.204;2022-09-24T14:52:54;1.10;;;0.90;;
50745;SDS011;36711;51.972;21.204;2022-09-24T14:55:34;2.50;;;0.90;;
50745;SDS011;36711;51.972;21.204;2022-09-24T14:58:02;3.20;;;0.90;;
50745;SDS011;36711;51.972;21.204;2022-09-24T15:00:36;2.30;;;1.30;;
50745;SDS011;36711;51.972;21.204;2022-09-24T15:03:13;4.20;;;0.80;;
50745;SDS011;36711;51.972;21.204;2022-09-24T15:05:41;4.80;;;0.70;;
50745;SDS011;36711;51.972;21.204;2022-09-24T15:10:39;2.90;;;1.00;;
50745;SDS011;36711;51.972;21.204;2022-09-24T15:13:13;1.30;;;0.90;;
50745;SDS011;36711;51.972;21.204;2022-09-24T15:15:42;10.30;;;1.30;;
50745;SDS011;36711;51.972;21.204;2022-09-24T15:18:11;6.50;;;1.20;;
50745;SDS011;36711;51.972;21.204;2022-09-24T15:20:39;7.20;;;1.10;;
50745;SDS011;36711;51.972;21.204;2022-09-24T15:23:06;2.40;;;1.20;;
50745;SDS011;36711;51.972;21.204;2022-09-24T15:25:35;1.70;;;1.20;;
50745;SDS011;36711;51.972;21.204;2022-09-24T15:28:03;4.30;;;1.10;;
50745;SDS011;36711;51.972;21.204;2022-09-24T15:30:31;3.20;;;1.40;;
50745;SDS011;36711;51.972;21.204;2022-09-24T15:32:58;5.60;;;1.20;;
50745;SDS011;36711;51.972;21.204;2022-09-24T15:35:26;7.10;;;1.30;;
50745;SDS011;36711;51.972;21.204;2022-09-24T15:37:53;6.90;;;1.30;;
50745;SDS011;36711;51.972;21.204;2022-09-24T15:40:22;1.40;;;1.20;;
50745;SDS011;36711;51.972;21.204;2022-09-24T15:42:52;1.70;;;1.10;;
50745;SDS011;36711;51.972;21.204;2022-09-24T15:45:23;2.20;;;1.10;;
50745;SDS011;36711;51.972;21.204;2022-09-24T15:47:52;2.40;;;1.30;;
50745;SDS011;36711;51.972;21.204;2022-09-24T15:50:20;3.80;;;1.40;;
50745;SDS011;36711;51.972;21.204;2022-09-24T15:52:50;3.50;;;1.70;;
50745;SDS011;36711;51.972;21.204;2022-09-24T15:55:18;3.40;;;1.60;;
50745;SDS011;36711;51.972;21.204;2022-09-24T15:57:46;3.60;;;1.70;;
50745;SDS011;36711;51.972;21.204;2022-09-24T16:00:18;2.50;;;1.80;;
50745;SDS011;36711;51.972;21.204;2022-09-24T16:02:49;4.40;;;1.60;;
50745;SDS011;36711;51.972;21.204;2022-09-24T16:05:18;1.50;;;1.40;;
50745;SDS011;36711;51.972;21.204;2022-09-24T16:07:46;6.90;;;1.60;;
50745;SDS011;36711;51.972;21.204;2022-09-24T16:10:14;8.50;;;1.90;;
50745;SDS011;36711;51.972;21.204;2022-09-24T16:12:42;4.40;;;1.80;;
50745;SDS011;36711;51.972;21.204;2022-09-24T16:15:11;8.10;;;2.00;;
50745;SDS011;36711;51.972;21.204;2022-09-24T16:17:39;3.90;;;2.00;;
50745;SDS011;36711;51.972;21.204;2022-09-24T16:23:30;6.90;;;2.10;;
50745;SDS011;36711;51.972;21.204;2022-09-24T16:39:11;9.00;;;2.40;;
50745;SDS011;36711;51.972;21.204;2022-09-24T16:41:42;5.80;;;2.90;;
50745;SDS011;36711;51.972;21.204;2022-09-24T16:44:10;8.10;;;2.90;;
50745;SDS011;36711;51.972;21.204;2022-09-24T16:46:41;53.50;;;5.80;;
50745;SDS011;36711;51.972;21.204;2022-09-24T16:49:10;23.00;;;4.10;;
50745;SDS011;36711;51.972;21.204;2022-09-24T16:51:37;32.30;;;4.80;;
50745;SDS011;36711;51.972;21.204;2022-09-24T16:54:05;14.50;;;3.50;;
50745;SDS011;36711;51.972;21.204;2022-09-24T16:56:33;12.70;;;4.10;;
50745;SDS011;36711;51.972;21.204;2022-09-24T16:59:00;12.80;;;4.00;;